logo
Search for airport 
image banner adimage banner adimage banner ad
image banner ad

DNBE - Benin

Located in Benin, Nigeria

ICAO - DNBE, IATA - BNI

Data provided by Airmate  

General information

Coordinates: N6°18'60" E5°35'56"
Elevation is 259 feet MSL.
 
View others Airports in Edo

Operational data

Special qualification required
Current time UTC:
Current local time:
Weather
TAF: TAF DNBE 241100Z 2412/2518 20010KT 9999 BKN014 TEMPO 2414/2419 TS SCT014 FEW020CB BECMG 2419/2421 VRB02KT SCT012 PROB30 TEMPO 2506/2508 5000 BR BECMG 2508/2510 22010KT BKN013 TEMPO 2513/2518 FEW020CB
View NOTAMs / SUP AIP / TFR affecting this airport [VIEW]
Communications frequencies: [VIEW]

Runways:

RWY identifierQFULength (ft)Width (ft)SurfaceLDA (ft)
0546°7874148ASP
23226°7874148ASP

Airport contact information

Address: Benin Nigeria

Satellite view of DNBE